Time;durP1;ratioP1;P1;durP2;ratioP2;P2;SDS_P1;SDS_P2;PMS_P1;PMS_P2;Temp;Humidity;BMP_temperature;BMP_pressure;BME280_temperature;BME280_humidity;BME280_pressure;Samples;Min_cycle;Max_cycle;Signal;HPM_P1;HPM_P2
2022/11/19 00:01:16;;;;;;;16.73;12.68;;;2.50;99.90;;;;;;5086557;28;19920;-73
2022/11/19 00:03:43;;;;;;;18.05;13.25;;;2.50;99.90;;;;;;5081283;28;20051;-73
2022/11/19 00:06:20;;;;;;;16.73;12.90;;;2.50;99.90;;;;;;5084807;28;20411;-73
2022/11/19 00:08:45;;;;;;;15.30;12.05;;;2.50;99.90;;;;;;5085475;28;20040;-73
2022/11/19 00:11:14;;;;;;;16.33;12.98;;;2.40;99.90;;;;;;5078683;28;20382;-74
2022/11/19 00:13:41;;;;;;;15.43;12.50;;;2.40;99.90;;;;;;5081608;28;20064;-74
2022/11/19 00:16:13;;;;;;;16.48;11.27;;;2.50;99.90;;;;;;5086549;28;20028;-74
2022/11/19 00:18:39;;;;;;;18.67;12.93;;;2.40;99.90;;;;;;5085868;28;20048;-73
2022/11/19 00:21:06;;;;;;;14.20;11.73;;;2.40;99.90;;;;;;5068481;28;20044;-73
2022/11/19 00:23:32;;;;;;;17.35;11.90;;;2.50;99.90;;;;;;5085297;28;20109;-74
2022/11/19 00:26:12;;;;;;;14.55;11.45;;;2.40;99.90;;;;;;5082284;28;20546;-73
2022/11/19 00:28:38;;;;;;;17.25;11.63;;;2.40;99.90;;;;;;5079669;28;20047;-73
2022/11/19 00:31:07;;;;;;;16.45;11.77;;;2.40;99.90;;;;;;5085273;28;20040;-74
2022/11/19 00:33:33;;;;;;;14.55;11.00;;;2.30;99.90;;;;;;5079949;28;20055;-73
2022/11/19 00:36:00;;;;;;;13.60;10.60;;;2.30;99.90;;;;;;5079933;28;20028;-73
2022/11/19 00:38:26;;;;;;;13.30;10.02;;;2.30;99.90;;;;;;5078851;28;20048;-73
2022/11/19 00:40:52;;;;;;;14.52;10.35;;;2.30;99.90;;;;;;5079503;28;20073;-73
2022/11/19 00:46:02;;;;;;;12.40;9.73;;;2.20;99.90;;;;;;5085775;28;20044;-74
2022/11/19 00:48:28;;;;;;;13.02;9.77;;;2.20;99.90;;;;;;5084240;28;20059;-73
2022/11/19 00:50:53;;;;;;;12.20;9.05;;;2.20;99.90;;;;;;5077786;28;20043;-73
2022/11/19 00:53:19;;;;;;;12.05;8.75;;;2.30;99.90;;;;;;5075314;28;20048;-74
2022/11/19 00:55:44;;;;;;;13.15;8.95;;;2.20;99.90;;;;;;5074425;28;20047;-73
2022/11/19 00:58:10;;;;;;;11.07;8.45;;;2.20;99.90;;;;;;5084926;28;20176;-73
2022/11/19 01:00:37;;;;;;;10.88;8.43;;;2.20;99.90;;;;;;5083198;28;20092;-74
2022/11/19 01:03:03;;;;;;;10.07;7.32;;;2.20;99.90;;;;;;5096310;28;20044;-73
2022/11/19 01:05:29;;;;;;;10.50;8.15;;;2.20;99.90;;;;;;5081655;28;20047;-74
2022/11/19 01:07:54;;;;;;;9.88;7.53;;;2.20;99.90;;;;;;5081101;28;20086;-73
2022/11/19 01:10:20;;;;;;;10.65;7.50;;;2.20;99.90;;;;;;5081008;28;20050;-73
2022/11/19 01:15:29;;;;;;;9.25;7.05;;;2.10;99.90;;;;;;5077810;28;20044;-74
2022/11/19 01:17:55;;;;;;;10.02;6.78;;;2.10;99.90;;;;;;5077351;28;20119;-72
2022/11/19 01:20:21;;;;;;;9.52;6.35;;;2.10;99.90;;;;;;5072288;28;20045;-73
2022/11/19 01:22:46;;;;;;;9.90;7.18;;;2.10;99.90;;;;;;5078005;28;20040;-73
2022/11/19 01:25:13;;;;;;;9.02;6.32;;;2.10;99.90;;;;;;5076594;28;20063;-73
2022/11/19 01:27:39;;;;;;;9.07;6.15;;;2.00;99.90;;;;;;5079133;28;20068;-73
2022/11/19 01:30:05;;;;;;;10.90;6.45;;;2.10;99.90;;;;;;5079633;28;20074;-73
2022/11/19 01:32:31;;;;;;;8.68;6.15;;;2.00;99.90;;;;;;5079863;28;20040;-73
2022/11/19 01:34:57;;;;;;;10.25;6.75;;;1.90;99.90;;;;;;5083703;28;20133;-73
2022/11/19 01:37:23;;;;;;;8.73;6.30;;;2.00;99.90;;;;;;5078292;28;20040;-72
2022/11/19 01:39:49;;;;;;;10.07;6.40;;;1.90;99.90;;;;;;5083397;28;20051;-73
2022/11/19 01:45:22;;;;;;;9.32;6.85;;;1.90;99.90;;;;;;5080807;28;20055;-73
2022/11/19 01:47:47;;;;;;;8.48;6.03;;;1.80;99.90;;;;;;5111500;27;20548;-73
2022/11/19 01:50:13;;;;;;;9.50;6.35;;;1.80;99.90;;;;;;5081143;28;20130;-72
2022/11/19 01:52:39;;;;;;;9.07;6.70;;;1.80;99.90;;;;;;5087245;28;20127;-73
2022/11/19 01:55:07;;;;;;;10.07;6.65;;;1.80;99.90;;;;;;5082842;28;20085;-73
2022/11/19 01:57:34;;;;;;;10.02;6.72;;;1.80;99.90;;;;;;5075425;28;20074;-74
2022/11/19 02:00:00;;;;;;;8.47;6.53;;;1.80;99.90;;;;;;5078336;28;20403;-73
2022/11/19 02:02:26;;;;;;;8.82;6.10;;;1.80;99.90;;;;;;5084306;28;20036;-74
2022/11/19 02:04:52;;;;;;;9.45;6.28;;;1.80;99.90;;;;;;5076017;28;20043;-74
2022/11/19 02:07:25;;;;;;;8.52;5.88;;;1.70;99.90;;;;;;5075517;28;20059;-74
2022/11/19 02:09:50;;;;;;;8.95;6.28;;;1.70;99.90;;;;;;5077969;28;20035;-74
2022/11/19 02:12:19;;;;;;;8.95;6.45;;;1.70;99.90;;;;;;5073090;28;20044;-73
2022/11/19 02:14:58;;;;;;;9.27;6.78;;;1.70;99.90;;;;;;5074844;28;20044;-74
2022/11/19 02:17:27;;;;;;;9.02;6.40;;;1.70;99.90;;;;;;5081282;28;20398;-74
2022/11/19 02:20:04;;;;;;;10.05;6.50;;;1.60;99.90;;;;;;5082006;28;20106;-73
2022/11/19 02:22:49;;;;;;;;;;;1.70;99.90;;;;;;5096319;28;20052;-74
2022/11/19 02:25:14;;;;;;;8.45;5.78;;;1.50;99.90;;;;;;5076743;28;19989;-74
2022/11/19 02:28:06;;;;;;;9.02;6.25;;;1.60;99.90;;;;;;5078567;28;20040;-74
2022/11/19 02:30:41;;;;;;;8.52;5.93;;;1.60;99.90;;;;;;5078433;28;20059;-74
2022/11/19 02:33:15;;;;;;;8.48;5.93;;;1.50;99.90;;;;;;5116956;27;20519;-73
2022/11/19 02:35:46;;;;;;;8.73;5.75;;;1.50;99.90;;;;;;5082499;28;20032;-73
2022/11/19 02:38:39;;;;;;;10.10;6.15;;;1.50;99.90;;;;;;5070487;28;20081;-74
2022/11/19 02:46:46;;;;;;;9.73;6.63;;;1.40;99.90;;;;;;5079646;28;20044;-73
2022/11/19 02:49:14;;;;;;;11.60;6.35;;;1.40;99.90;;;;;;5075736;28;20047;-74
2022/11/19 02:51:39;;;;;;;9.85;6.53;;;1.30;99.90;;;;;;5115247;27;20067;-74
2022/11/19 02:54:06;;;;;;;10.10;6.47;;;1.30;99.90;;;;;;5083387;28;20040;-74
2022/11/19 02:56:50;;;;;;;10.23;6.88;;;1.20;99.90;;;;;;5079339;28;20086;-73
2022/11/19 03:04:52;;;;;;;9.85;6.78;;;1.10;99.90;;;;;;5081999;28;20047;-74
2022/11/19 03:07:19;;;;;;;10.07;7.05;;;1.00;99.90;;;;;;5074264;28;20199;-74
2022/11/19 03:09:48;;;;;;;;;;;1.00;99.90;;;;;;5079915;28;20036;-74
2022/11/19 03:12:51;;;;;;;9.77;6.60;;;1.00;99.90;;;;;;5082333;28;19927;-73
2022/11/19 03:18:53;;;;;;;11.70;7.57;;;0.90;99.90;;;;;;5015457;28;20138;-74
2022/11/19 03:21:33;;;;;;;10.75;7.30;;;0.90;99.90;;;;;;5036917;28;20036;-73
2022/11/19 03:24:03;;;;;;;10.43;7.30;;;0.90;99.90;;;;;;5066151;28;20139;-73
2022/11/19 03:26:37;;;;;;;10.45;7.22;;;0.90;99.90;;;;;;5073801;28;20676;-73
2022/11/19 03:29:07;;;;;;;11.43;7.32;;;0.90;99.90;;;;;;5076641;28;20055;-73
2022/11/19 03:31:34;;;;;;;10.10;6.97;;;0.90;99.90;;;;;;5108688;28;20120;-73
2022/11/19 03:34:06;;;;;;;9.95;6.80;;;0.90;99.90;;;;;;5078326;28;20539;-73
2022/11/19 03:36:37;;;;;;;9.40;6.82;;;0.90;99.90;;;;;;5073853;28;20040;-74
2022/11/19 03:39:09;;;;;;;9.55;6.82;;;0.80;99.90;;;;;;5074758;28;20133;-73
2022/11/19 03:41:38;;;;;;;10.23;7.65;;;0.80;99.90;;;;;;5084019;28;20051;-73
2022/11/19 03:44:19;;;;;;;10.73;7.55;;;0.80;99.90;;;;;;5084288;28;20044;-72
2022/11/19 03:46:47;;;;;;;11.48;7.43;;;0.80;99.90;;;;;;5081039;28;20055;-73
2022/11/19 03:49:14;;;;;;;9.82;6.90;;;0.80;99.90;;;;;;5076504;28;20047;-74
2022/11/19 03:51:50;;;;;;;9.82;6.97;;;0.80;99.90;;;;;;5083864;28;20122;-73
2022/11/19 03:54:16;;;;;;;10.20;7.23;;;0.80;99.90;;;;;;5077235;28;20507;-73
2022/11/19 03:56:45;;;;;;;10.65;7.00;;;0.70;99.90;;;;;;5083999;28;20044;-73
2022/11/19 03:59:11;;;;;;;10.00;7.13;;;0.70;99.90;;;;;;5078819;28;20040;-74
2022/11/19 04:01:38;;;;;;;9.90;6.95;;;0.80;99.90;;;;;;5076644;28;20058;-73
2022/11/19 04:06:48;;;;;;;9.20;6.70;;;0.70;99.90;;;;;;5078752;28;20051;-74
2022/11/19 04:09:14;;;;;;;10.57;6.63;;;0.70;99.90;;;;;;5084582;28;20471;-74
2022/11/19 04:11:40;;;;;;;10.02;7.13;;;0.70;99.90;;;;;;5081518;28;20044;-73
2022/11/19 04:14:05;;;;;;;10.93;7.28;;;0.60;99.90;;;;;;5079614;28;20032;-73
2022/11/19 04:16:31;;;;;;;9.93;6.70;;;0.60;99.90;;;;;;5085508;28;20035;-74
2022/11/19 04:18:56;;;;;;;11.05;7.22;;;0.60;99.90;;;;;;5084683;28;20064;-74
2022/11/19 04:21:22;;;;;;;11.35;6.82;;;0.60;99.90;;;;;;5081933;28;20047;-74
2022/11/19 04:23:48;;;;;;;10.15;6.85;;;0.60;99.90;;;;;;5085695;28;20531;-74
2022/11/19 04:26:13;;;;;;;9.95;7.10;;;0.60;99.90;;;;;;5083622;28;20102;-74
2022/11/19 04:28:39;;;;;;;11.02;7.00;;;0.60;99.90;;;;;;5075041;28;20487;-73
2022/11/19 04:31:05;;;;;;;10.50;6.95;;;0.60;99.90;;;;;;5081209;28;20044;-74
2022/11/19 04:33:30;;;;;;;9.93;6.63;;;0.70;99.90;;;;;;5117274;27;20105;-73
2022/11/19 04:35:56;;;;;;;11.80;7.30;;;0.60;99.90;;;;;;5084541;28;20040;-73
2022/11/19 04:38:22;;;;;;;10.40;7.55;;;0.60;99.90;;;;;;5082820;28;20077;-73
2022/11/19 04:40:47;;;;;;;9.88;6.82;;;0.60;99.90;;;;;;5082763;28;20123;-73
2022/11/19 04:43:13;;;;;;;11.68;7.25;;;0.60;99.90;;;;;;5083418;28;20467;-73
2022/11/19 04:45:38;;;;;;;10.48;7.40;;;0.60;99.90;;;;;;5081776;28;20032;-73
2022/11/19 04:48:04;;;;;;;9.45;7.15;;;0.50;99.90;;;;;;5086619;28;20601;-73
2022/11/19 04:50:30;;;;;;;9.45;6.93;;;0.50;99.90;;;;;;5085104;28;20126;-74
2022/11/19 04:52:55;;;;;;;10.52;7.63;;;0.50;99.90;;;;;;5086321;28;20039;-74
2022/11/19 04:55:21;;;;;;;11.07;7.85;;;0.50;99.90;;;;;;5086816;28;20403;-74
2022/11/19 04:57:50;;;;;;;11.55;7.72;;;0.40;99.90;;;;;;5113724;27;20090;-73
2022/11/19 05:00:16;;;;;;;11.57;8.18;;;0.40;99.90;;;;;;5084663;28;20539;-73
2022/11/19 05:02:42;;;;;;;11.02;8.23;;;0.40;99.90;;;;;;5081928;28;20054;-73
2022/11/19 05:05:08;;;;;;;10.93;7.80;;;0.40;99.90;;;;;;5085985;28;20051;-73
2022/11/19 05:07:33;;;;;;;10.88;8.20;;;0.40;99.90;;;;;;5072052;28;20123;-73
2022/11/19 05:09:59;;;;;;;11.00;8.10;;;0.40;99.90;;;;;;5074070;28;20040;-73
2022/11/19 05:12:25;;;;;;;11.80;8.07;;;0.40;99.90;;;;;;5080118;28;20036;-74
2022/11/19 05:14:50;;;;;;;12.40;8.80;;;0.30;99.90;;;;;;5085171;28;20083;-73
2022/11/19 05:17:16;;;;;;;11.75;8.73;;;0.30;99.90;;;;;;5080130;28;20085;-73
2022/11/19 05:19:41;;;;;;;13.77;9.15;;;0.30;99.90;;;;;;5086483;28;20075;-73
2022/11/19 05:22:07;;;;;;;13.02;8.63;;;0.30;99.90;;;;;;5075473;28;20086;-74
2022/11/19 05:24:33;;;;;;;12.25;8.73;;;0.20;99.90;;;;;;5077018;28;20120;-74
2022/11/19 05:26:58;;;;;;;11.50;8.50;;;0.30;99.90;;;;;;5078162;28;20132;-74
2022/11/19 05:29:24;;;;;;;12.70;9.30;;;0.20;99.90;;;;;;5084326;28;20035;-73
2022/11/19 05:31:49;;;;;;;13.80;9.65;;;0.30;99.90;;;;;;5080528;28;20048;-74
2022/11/19 05:34:15;;;;;;;13.93;9.55;;;0.30;99.90;;;;;;5081757;28;20127;-74
2022/11/19 05:36:41;;;;;;;13.13;9.63;;;0.30;99.90;;;;;;5082262;28;20447;-73
2022/11/19 05:39:06;;;;;;;14.75;10.55;;;0.20;99.90;;;;;;5083745;28;20036;-73
2022/11/19 05:41:32;;;;;;;13.48;10.05;;;0.20;99.90;;;;;;5120289;27;20109;-74
2022/11/19 05:43:57;;;;;;;13.80;10.13;;;0.20;99.90;;;;;;5082587;28;20050;-73
2022/11/19 05:46:23;;;;;;;13.25;9.30;;;0.20;99.90;;;;;;5082816;28;20528;-73
2022/11/19 05:48:48;;;;;;;15.32;11.00;;;0.20;99.90;;;;;;5078696;28;20115;-73
2022/11/19 05:51:15;;;;;;;16.00;11.07;;;0.10;99.90;;;;;;5083671;28;20048;-73
2022/11/19 05:53:41;;;;;;;15.07;10.75;;;0.20;99.90;;;;;;5082974;28;20518;-73
2022/11/19 05:56:07;;;;;;;14.73;10.27;;;0.10;99.90;;;;;;5116462;27;20373;-73
2022/11/19 05:58:33;;;;;;;14.63;10.77;;;0.10;99.90;;;;;;5077083;28;20426;-73
2022/11/19 06:01:02;;;;;;;16.33;11.35;;;0.10;99.90;;;;;;5079074;28;20052;-73
2022/11/19 06:03:28;;;;;;;15.65;10.95;;;0.10;99.90;;;;;;5082559;28;20069;-74
2022/11/19 06:05:53;;;;;;;14.90;10.95;;;0.00;99.90;;;;;;5080584;28;20041;-73
2022/11/19 06:08:19;;;;;;;14.23;10.25;;;0.00;99.90;;;;;;5079148;28;20373;-74
2022/11/19 06:10:45;;;;;;;19.23;11.13;;;0.00;99.90;;;;;;5082192;28;20459;-73
2022/11/19 06:13:10;;;;;;;17.02;10.95;;;0.00;99.90;;;;;;5074162;28;20044;-73
2022/11/19 06:15:36;;;;;;;16.05;11.15;;;0.10;99.90;;;;;;5083300;28;20052;-73
2022/11/19 06:18:02;;;;;;;15.98;11.13;;;0.00;99.90;;;;;;5082158;28;20040;-73
2022/11/19 06:20:27;;;;;;;15.65;11.23;;;0.00;99.90;;;;;;5082869;28;20089;-74
2022/11/19 06:22:53;;;;;;;14.70;11.07;;;0.00;99.90;;;;;;5084397;28;20411;-74
2022/11/19 06:25:19;;;;;;;15.15;10.60;;;0.00;99.90;;;;;;5082565;28;20039;-74
2022/11/19 06:27:44;;;;;;;14.07;10.90;;;0.00;99.90;;;;;;5081231;28;20117;-74
2022/11/19 06:30:11;;;;;;;14.75;10.90;;;0.00;99.90;;;;;;5081120;28;20510;-74
2022/11/19 06:32:36;;;;;;;16.05;11.80;;;0.00;99.90;;;;;;5074087;28;20046;-73
2022/11/19 06:35:02;;;;;;;14.48;10.52;;;0.00;99.90;;;;;;5116511;27;20043;-73
2022/11/19 06:37:28;;;;;;;13.90;10.48;;;0.00;99.90;;;;;;5082147;28;20089;-73
2022/11/19 06:39:54;;;;;;;15.73;11.27;;;0.00;99.90;;;;;;5085275;28;20036;-73
2022/11/19 06:42:35;;;;;;;14.82;10.38;;;0.10;99.90;;;;;;5081023;28;20414;-73
2022/11/19 06:45:10;;;;;;;20.10;14.23;;;0.00;99.90;;;;;;5081771;28;20040;-74
2022/11/19 06:47:36;;;;;;;36.35;20.52;;;-0.10;99.90;;;;;;5073873;28;20052;-74
2022/11/19 06:50:02;;;;;;;25.17;16.60;;;-0.10;99.90;;;;;;5079171;28;20032;-73
2022/11/19 06:52:28;;;;;;;16.77;10.90;;;-0.10;99.90;;;;;;5078389;28;20112;-74
2022/11/19 06:54:54;;;;;;;19.73;13.30;;;-0.10;99.90;;;;;;5072989;28;20719;-73
2022/11/19 06:57:20;;;;;;;17.73;12.25;;;-0.10;99.90;;;;;;5071683;28;20046;-73
2022/11/19 06:59:46;;;;;;;14.90;11.18;;;-0.10;99.90;;;;;;5076402;28;20070;-73
2022/11/19 07:02:11;;;;;;;15.15;11.48;;;-0.10;99.90;;;;;;5076215;28;20051;-73
2022/11/19 07:04:37;;;;;;;15.60;11.65;;;-0.10;99.90;;;;;;5072296;28;20407;-73
2022/11/19 07:07:04;;;;;;;16.67;11.50;;;-0.10;99.90;;;;;;5080721;28;20139;-73
2022/11/19 07:09:30;;;;;;;16.00;11.45;;;-0.10;99.90;;;;;;5068787;28;20056;-76
2022/11/19 07:11:55;;;;;;;14.32;10.98;;;-0.10;99.90;;;;;;5079665;28;20051;-74
2022/11/19 07:14:21;;;;;;;17.55;12.55;;;-0.10;99.90;;;;;;5074786;28;20044;-74
2022/11/19 07:16:47;;;;;;;14.90;10.45;;;-0.10;99.90;;;;;;5082576;28;21103;-74
2022/11/19 07:19:13;;;;;;;16.23;11.05;;;-0.20;99.90;;;;;;5075903;28;21559;-73
2022/11/19 07:21:39;;;;;;;16.00;10.52;;;-0.20;99.90;;;;;;5083776;28;20044;-74
2022/11/19 07:24:07;;;;;;;15.52;10.57;;;-0.20;99.90;;;;;;5082031;28;20032;-73
2022/11/19 07:26:35;;;;;;;16.15;10.68;;;-0.20;99.90;;;;;;5084582;28;20044;-73
2022/11/19 07:29:05;;;;;;;14.68;10.52;;;-0.20;99.90;;;;;;5119650;28;20345;-73
2022/11/19 07:31:34;;;;;;;14.43;10.02;;;-0.20;99.90;;;;;;5108475;27;20051;-73
2022/11/19 07:34:00;;;;;;;15.15;10.43;;;-0.10;99.90;;;;;;5084021;28;20032;-73
2022/11/19 07:36:25;;;;;;;14.93;10.55;;;-0.10;99.90;;;;;;5116389;28;20462;-73
2022/11/19 07:38:51;;;;;;;15.43;11.00;;;-0.10;99.90;;;;;;5072972;28;20448;-73
2022/11/19 07:44:03;;;;;;;14.32;10.30;;;-0.10;99.90;;;;;;5083156;28;20513;-73
2022/11/19 07:46:30;;;;;;;14.23;10.27;;;-0.10;99.90;;;;;;5083549;28;20051;-74
2022/11/19 07:48:57;;;;;;;14.48;10.30;;;-0.10;99.90;;;;;;5077483;28;20056;-74
2022/11/19 07:51:23;;;;;;;14.50;10.75;;;-0.10;99.90;;;;;;5084723;28;20696;-73
2022/11/19 07:53:49;;;;;;;12.82;10.10;;;-0.10;99.90;;;;;;5089697;28;20050;-73
2022/11/19 07:56:16;;;;;;;14.38;10.40;;;0.00;99.90;;;;;;5087943;28;20534;-73
2022/11/19 07:58:42;;;;;;;15.45;11.00;;;0.00;99.90;;;;;;5114375;27;20073;-74
2022/11/19 08:01:13;;;;;;;14.60;10.60;;;0.00;99.90;;;;;;5083757;28;20048;-73
2022/11/19 08:03:45;;;;;;;14.27;10.82;;;0.10;99.90;;;;;;5089649;28;20459;-73
2022/11/19 08:06:12;;;;;;;14.48;10.73;;;0.10;99.90;;;;;;5082008;28;20382;-74
2022/11/19 08:08:38;;;;;;;16.00;10.60;;;0.10;99.90;;;;;;5073964;28;20116;-73
2022/11/19 08:11:05;;;;;;;15.45;10.20;;;0.10;99.90;;;;;;5076066;28;20174;-73
2022/11/19 08:13:32;;;;;;;12.85;9.40;;;0.10;99.90;;;;;;5081277;28;20036;-73
2022/11/19 08:16:03;;;;;;;17.97;10.60;;;0.20;99.90;;;;;;5085731;28;20068;-73
2022/11/19 08:18:29;;;;;;;13.40;9.65;;;0.20;99.90;;;;;;5117943;27;22094;-73
2022/11/19 08:21:01;;;;;;;14.33;9.23;;;0.20;99.90;;;;;;5085081;28;20048;-74
2022/11/19 08:23:26;;;;;;;13.13;9.95;;;0.20;99.90;;;;;;5085203;28;20040;-74
2022/11/19 08:25:52;;;;;;;12.23;9.10;;;0.30;99.90;;;;;;5087562;28;20039;-74
2022/11/19 08:28:18;;;;;;;14.20;9.95;;;0.30;99.90;;;;;;5084240;28;20055;-74
2022/11/19 08:30:45;;;;;;;13.93;9.70;;;0.30;99.90;;;;;;5088498;28;20040;-73
2022/11/19 08:33:12;;;;;;;14.38;10.27;;;0.40;99.90;;;;;;5117726;27;20085;-74
2022/11/19 08:35:38;;;;;;;15.40;10.40;;;0.40;99.90;;;;;;5075822;28;20051;-74
2022/11/19 08:38:04;;;;;;;14.15;10.20;;;0.40;99.90;;;;;;5081951;28;20048;-74
2022/11/19 08:40:29;;;;;;;16.02;11.25;;;0.40;99.90;;;;;;5076244;28;20089;-73
2022/11/19 08:43:01;;;;;;;13.45;10.75;;;0.50;99.90;;;;;;5084559;28;20032;-73
2022/11/19 08:45:32;;;;;;;13.20;9.43;;;0.50;99.90;;;;;;5074082;28;20044;-74
2022/11/19 08:48:00;;;;;;;13.15;9.85;;;0.50;99.90;;;;;;5111405;27;20146;-73
2022/11/19 08:50:26;;;;;;;;;;;0.50;99.90;;;;;;5079330;28;20040;-70
2022/11/19 08:53:04;;;;;;;13.57;9.80;;;0.50;99.90;;;;;;5079313;28;19921;-73
2022/11/19 08:55:31;;;;;;;14.85;9.95;;;0.60;99.90;;;;;;5083156;28;20059;-75
2022/11/19 08:58:01;;;;;;;17.40;12.35;;;0.60;99.90;;;;;;5087029;28;20096;-76
2022/11/19 09:00:27;;;;;;;15.25;10.63;;;0.70;99.90;;;;;;5086368;28;20066;-75
2022/11/19 09:02:53;;;;;;;14.52;10.30;;;0.70;99.90;;;;;;5081284;28;20036;-77
2022/11/19 09:05:19;;;;;;;13.73;10.45;;;0.70;99.90;;;;;;5086567;28;20044;-77
2022/11/19 09:07:45;;;;;;;18.00;11.43;;;0.70;99.90;;;;;;5074159;28;20139;-77
2022/11/19 09:10:10;;;;;;;15.65;11.43;;;0.80;99.90;;;;;;5084016;28;20072;-74
2022/11/19 09:12:36;;;;;;;13.50;10.15;;;0.80;99.90;;;;;;5086560;28;20051;-74
2022/11/19 09:15:02;;;;;;;14.43;10.73;;;0.80;99.90;;;;;;5077014;28;20040;-78
2022/11/19 09:17:28;;;;;;;14.35;10.65;;;0.80;99.90;;;;;;5073329;28;20043;-81
2022/11/19 09:19:54;;;;;;;13.27;9.82;;;0.80;99.90;;;;;;5089352;28;20553;-78
2022/11/19 09:22:20;;;;;;;13.20;9.93;;;0.90;99.90;;;;;;5088160;28;20028;-79
2022/11/19 09:24:45;;;;;;;12.43;9.75;;;0.90;99.90;;;;;;5079746;28;20056;-79
2022/11/19 09:27:11;;;;;;;14.15;10.23;;;0.90;99.90;;;;;;5075499;28;20035;-78
2022/11/19 09:29:36;;;;;;;15.35;10.55;;;0.90;99.90;;;;;;5083861;28;20036;-78
2022/11/19 09:32:02;;;;;;;13.40;9.82;;;1.00;99.90;;;;;;5080867;28;20040;-71
2022/11/19 09:34:28;;;;;;;18.35;12.77;;;1.00;99.90;;;;;;5079708;28;20047;-71
2022/11/19 09:36:54;;;;;;;14.55;10.57;;;1.10;99.90;;;;;;5083519;28;20617;-76
2022/11/19 09:39:19;;;;;;;14.80;10.90;;;1.10;99.90;;;;;;5078504;28;20059;-76
2022/11/19 09:42:10;;;;;;;17.45;12.15;;;1.10;99.90;;;;;;5082856;28;20048;-76
2022/11/19 09:44:54;;;;;;;18.38;12.00;;;1.10;99.90;;;;;;5086262;28;20044;-77
2022/11/19 09:47:46;;;;;;;14.82;11.15;;;1.20;99.90;;;;;;5081553;28;20036;-80
2022/11/19 09:50:22;;;;;;;14.15;10.50;;;1.20;99.90;;;;;;5078145;28;20414;-77
2022/11/19 09:53:00;;;;;;;14.20;10.93;;;1.30;99.90;;;;;;5115285;27;20047;-74
2022/11/19 09:55:35;;;;;;;14.70;10.65;;;1.30;99.90;;;;;;5077491;28;20059;-74
2022/11/19 09:58:04;;;;;;;13.55;10.55;;;1.30;99.90;;;;;;5085531;28;20148;-75
2022/11/19 10:00:31;;;;;;;15.02;10.57;;;1.40;99.90;;;;;;5105282;27;20048;-74
2022/11/19 10:03:01;;;;;;;13.90;10.57;;;1.40;99.90;;;;;;5087811;28;20556;-75
2022/11/19 10:05:38;;;;;;;11.80;9.88;;;1.50;99.90;;;;;;5084014;28;20071;-77
2022/11/19 10:08:25;;;;;;;14.07;10.02;;;1.50;99.90;;;;;;5073387;28;20033;-74
2022/11/19 10:11:28;;;;;;;15.38;9.90;;;1.50;99.90;;;;;;5080881;28;20036;-74
2022/11/19 10:13:53;;;;;;;13.73;9.75;;;1.60;99.90;;;;;;5069189;28;20055;-72
2022/11/19 10:16:28;;;;;;;13.20;10.13;;;1.60;99.90;;;;;;5086984;28;20045;-73
2022/11/19 10:19:03;;;;;;;13.82;9.25;;;1.60;99.90;;;;;;5088091;28;20040;-73
2022/11/19 10:21:40;;;;;;;13.32;10.00;;;1.60;99.90;;;;;;5088057;28;20119;-73
2022/11/19 10:24:33;;;;;;;12.57;9.43;;;1.60;99.90;;;;;;5087148;28;20055;-73
2022/11/19 10:27:01;;;;;;;12.25;10.02;;;1.70;99.90;;;;;;5118251;27;20359;-72
2022/11/19 10:29:36;;;;;;;12.80;9.20;;;1.80;99.90;;;;;;5075685;28;20058;-79
2022/11/19 10:32:28;;;;;;;12.18;9.35;;;1.80;99.90;;;;;;5072537;28;20044;-79
2022/11/19 10:34:59;;;;;;;11.80;9.23;;;1.90;99.90;;;;;;5070856;28;20056;-77
2022/11/19 10:37:32;;;;;;;13.65;9.38;;;1.90;99.90;;;;;;5071628;28;20040;-77
2022/11/19 10:40:07;;;;;;;12.60;9.90;;;1.90;99.90;;;;;;5083049;28;20036;-78
2022/11/19 10:42:39;;;;;;;12.50;8.55;;;2.00;99.90;;;;;;5084547;28;20051;-79
2022/11/19 10:45:27;;;;;;;11.63;8.65;;;2.00;99.90;;;;;;5071926;28;20101;-74
2022/11/19 10:48:03;;;;;;;12.57;9.45;;;2.00;99.90;;;;;;5068621;28;20040;-73
2022/11/19 10:50:28;;;;;;;11.45;8.70;;;2.10;99.90;;;;;;5072395;28;20079;-74
2022/11/19 10:53:05;;;;;;;11.68;8.60;;;2.10;99.90;;;;;;5081166;28;20474;-74
2022/11/19 10:55:38;;;;;;;11.55;8.55;;;2.10;99.90;;;;;;5082620;28;20052;-75
2022/11/19 10:58:14;;;;;;;12.98;9.20;;;2.20;99.90;;;;;;5079943;28;20052;-75
2022/11/19 11:00:41;;;;;;;10.93;8.70;;;2.20;99.90;;;;;;5082643;28;20137;-75
2022/11/19 11:03:20;;;;;;;10.45;8.07;;;2.20;99.90;;;;;;5080231;28;20502;-75
2022/11/19 11:06:12;;;;;;;10.95;8.50;;;2.30;99.90;;;;;;5069467;28;20964;-73
2022/11/19 11:08:55;;;;;;;11.57;8.75;;;2.30;99.90;;;;;;5077172;28;20044;-76
2022/11/19 11:17:15;;;;;;;11.88;8.60;;;2.40;99.90;;;;;;5067601;28;20450;-72
2022/11/19 11:19:41;;;;;;;12.02;7.95;;;2.40;99.90;;;;;;5072462;28;20040;-73
2022/11/19 11:22:08;;;;;;;10.52;7.85;;;2.40;99.90;;;;;;5071855;28;20051;-73
2022/11/19 11:24:37;;;;;;;9.68;7.15;;;2.40;99.90;;;;;;5071852;28;20050;-73
2022/11/19 11:27:32;;;;;;;10.07;7.30;;;2.50;99.90;;;;;;5071898;28;20055;-73
2022/11/19 11:30:11;;;;;;;9.15;7.63;;;2.50;99.90;;;;;;5103765;28;20048;-73
2022/11/19 11:32:38;;;;;;;9.98;6.93;;;2.50;99.90;;;;;;5070402;28;20495;-73
2022/11/19 11:35:05;;;;;;;8.52;6.95;;;2.50;99.90;;;;;;5071258;28;20028;-73
2022/11/19 11:37:34;;;;;;;9.57;7.30;;;2.50;99.90;;;;;;5071386;28;20043;-73
2022/11/19 11:40:00;;;;;;;11.07;7.30;;;2.60;99.90;;;;;;5071531;28;20072;-73
2022/11/19 11:42:27;;;;;;;9.95;7.47;;;2.60;99.90;;;;;;5077451;28;20146;-73
2022/11/19 11:45:00;;;;;;;9.55;6.85;;;2.60;99.90;;;;;;5071271;28;20090;-73
2022/11/19 11:47:38;;;;;;;10.70;8.10;;;2.60;99.90;;;;;;5083154;28;20503;-73
2022/11/19 11:50:16;;;;;;;8.75;6.50;;;2.70;99.90;;;;;;5090445;28;20048;-73
2022/11/19 11:52:47;;;;;;;9.77;6.88;;;2.70;99.90;;;;;;5088425;28;20044;-73
2022/11/19 11:55:22;;;;;;;8.65;6.78;;;2.80;99.90;;;;;;5110566;27;20392;-72
2022/11/19 11:58:02;;;;;;;9.57;7.78;;;2.80;99.90;;;;;;5074678;28;20067;-75
2022/11/19 12:00:31;;;;;;;10.75;8.00;;;2.90;99.90;;;;;;5113538;27;20040;-74
2022/11/19 12:03:06;;;;;;;9.60;7.90;;;2.90;99.90;;;;;;5078457;28;20048;-76
2022/11/19 12:05:51;;;;;;;9.95;7.95;;;3.00;99.90;;;;;;5083728;28;20067;-75
2022/11/19 12:08:20;;;;;;;9.77;7.60;;;3.00;99.90;;;;;;5085576;28;20040;-75
2022/11/19 12:10:53;;;;;;;8.65;6.90;;;3.00;99.90;;;;;;5085545;28;20115;-73
2022/11/19 12:13:37;;;;;;;9.07;7.32;;;3.00;99.90;;;;;;5085546;28;20056;-72
2022/11/19 12:16:32;;;;;;;9.13;7.00;;;3.10;99.90;;;;;;5076507;28;20029;-75
2022/11/19 12:19:15;;;;;;;8.68;6.90;;;3.10;99.90;;;;;;5062498;28;20059;-73
2022/11/19 12:21:50;;;;;;;10.73;7.22;;;3.20;99.90;;;;;;5088737;28;20055;-75
2022/11/19 12:24:34;;;;;;;8.50;6.97;;;3.10;99.90;;;;;;5089707;28;20441;-75
2022/11/19 12:27:24;;;;;;;8.68;6.85;;;3.10;99.90;;;;;;5081707;28;20431;-75
2022/11/19 12:30:00;;;;;;;9.48;6.80;;;3.10;99.90;;;;;;5070375;28;20150;-75
2022/11/19 12:33:01;;;;;;;10.18;7.63;;;3.20;99.90;;;;;;5082634;28;20133;-74
2022/11/19 12:35:32;;;;;;;9.70;7.35;;;3.20;99.90;;;;;;5074606;28;20071;-75
2022/11/19 12:38:23;;;;;;;9.80;7.10;;;3.20;99.90;;;;;;5079547;28;20083;-80
2022/11/19 12:41:09;;;;;;;10.25;7.80;;;3.20;99.90;;;;;;5070952;28;20389;-75
2022/11/19 12:43:52;;;;;;;11.05;8.45;;;3.20;99.90;;;;;;5075143;28;20506;-76
2022/11/19 12:46:33;;;;;;;8.60;7.00;;;3.20;99.90;;;;;;5086707;28;20818;-75
2022/11/19 12:49:40;;;;;;;10.70;7.18;;;3.20;99.90;;;;;;5077526;28;20138;-76
2022/11/19 12:52:25;;;;;;;10.30;7.55;;;3.30;99.90;;;;;;5082108;28;20044;-74
2022/11/19 12:55:00;;;;;;;9.25;7.28;;;3.20;99.90;;;;;;5077672;28;20052;-76
2022/11/19 12:57:29;;;;;;;10.32;7.00;;;3.20;99.90;;;;;;5081939;28;20104;-76
2022/11/19 13:00:09;;;;;;;9.75;7.05;;;3.30;99.90;;;;;;5080598;28;20032;-78
2022/11/19 13:02:39;;;;;;;9.77;7.57;;;3.30;99.90;;;;;;5079464;28;20131;-80
2022/11/19 13:05:36;;;;;;;8.98;6.93;;;3.30;99.90;;;;;;5083252;28;20043;-79
2022/11/19 13:08:11;;;;;;;8.55;6.75;;;3.30;99.70;;;;;;5075939;28;20087;-80
2022/11/19 13:10:41;;;;;;;9.93;6.55;;;3.30;99.90;;;;;;5088287;28;20055;-74
2022/11/19 13:13:13;;;;;;;9.93;6.93;;;3.30;99.90;;;;;;5084451;28;20036;-78
2022/11/19 13:15:44;;;;;;;8.05;6.15;;;3.30;99.90;;;;;;5083857;28;20036;-80
2022/11/19 13:18:15;;;;;;;10.00;7.05;;;3.30;99.90;;;;;;5117862;27;20368;-83
2022/11/19 13:20:44;;;;;;;9.05;6.63;;;3.30;99.90;;;;;;5080037;28;20170;-82
2022/11/19 13:23:21;;;;;;;9.68;6.32;;;3.30;99.90;;;;;;5085869;28;20044;-80
2022/11/19 13:26:04;;;;;;;9.48;6.38;;;3.30;99.60;;;;;;5087467;28;20033;-81
2022/11/19 13:29:12;;;;;;;8.63;6.20;;;3.30;99.50;;;;;;5086440;28;20516;-83
2022/11/19 13:31:46;;;;;;;9.32;6.45;;;3.30;98.30;;;;;;5069210;28;20060;-82
2022/11/19 13:34:30;;;;;;;14.70;7.95;;;3.30;99.50;;;;;;5084500;28;20047;-82
2022/11/19 13:37:02;;;;;;;12.60;8.20;;;3.30;98.90;;;;;;5082894;28;20140;-81